createdAt,value
2017-05-07T00:00:02.594Z,0
2017-05-07T00:01:13.803Z,0
2017-05-07T00:02:24.810Z,0
2017-05-07T00:03:35.814Z,0
2017-05-07T00:04:46.875Z,0
2017-05-07T00:05:57.873Z,0
2017-05-07T00:07:09.076Z,0
2017-05-07T00:08:20.086Z,0
2017-05-07T00:09:31.099Z,0
2017-05-07T00:10:42.093Z,0
2017-05-07T00:11:53.110Z,0
2017-05-07T00:13:04.117Z,0
2017-05-07T00:14:15.116Z,0
2017-05-07T00:15:26.168Z,0
2017-05-07T00:16:37.365Z,0
2017-05-07T00:17:48.368Z,0
2017-05-07T00:18:59.378Z,0
2017-05-07T00:20:10.384Z,0
2017-05-07T00:21:21.442Z,0
2017-05-07T00:22:32.437Z,0
2017-05-07T00:23:43.446Z,0
2017-05-07T00:24:54.662Z,0
2017-05-07T00:26:05.688Z,0
2017-05-07T00:27:17.098Z,0
2017-05-07T00:28:28.092Z,0
2017-05-07T00:29:39.103Z,0
2017-05-07T00:30:50.110Z,0
2017-05-07T00:32:01.321Z,0
2017-05-07T00:33:12.318Z,0
2017-05-07T00:34:23.322Z,0
2017-05-07T00:35:34.332Z,0
2017-05-07T00:36:45.336Z,0
2017-05-07T00:37:56.395Z,0
2017-05-07T00:39:07.411Z,0
2017-05-07T00:40:18.409Z,0
2017-05-07T00:41:29.420Z,0
2017-05-07T00:42:40.423Z,0
2017-05-07T00:43:51.433Z,0
2017-05-07T00:45:02.434Z,0
2017-05-07T00:46:13.630Z,0
2017-05-07T00:47:24.634Z,0
2017-05-07T00:48:35.682Z,0
2017-05-07T00:49:46.690Z,0
2017-05-07T00:50:57.900Z,0
2017-05-07T00:52:09.115Z,0
2017-05-07T00:53:20.119Z,0
2017-05-07T00:54:31.326Z,0
2017-05-07T00:55:42.328Z,0
2017-05-07T00:56:53.342Z,0
2017-05-07T00:58:04.342Z,0
2017-05-07T00:59:15.413Z,0
2017-05-07T01:00:26.437Z,0
2017-05-07T01:01:37.443Z,0
2017-05-07T01:02:48.464Z,0
2017-05-07T01:03:59.476Z,0
2017-05-07T01:05:10.885Z,0
2017-05-07T01:06:21.892Z,0
2017-05-07T01:07:32.904Z,0
2017-05-07T01:08:43.920Z,0
2017-05-07T01:09:54.984Z,0
2017-05-07T01:11:05.983Z,0
2017-05-07T01:12:16.977Z,0
2017-05-07T01:13:27.986Z,0
2017-05-07T01:14:39.032Z,0
2017-05-07T01:15:50.051Z,0
2017-05-07T01:17:01.257Z,0
2017-05-07T01:18:12.269Z,0
2017-05-07T01:19:23.278Z,0
2017-05-07T01:20:34.295Z,0
2017-05-07T01:21:45.505Z,0
2017-05-07T01:22:56.714Z,0
2017-05-07T01:24:07.715Z,0
2017-05-07T01:25:19.173Z,0
2017-05-07T01:26:30.192Z,0
2017-05-07T01:27:41.207Z,0
2017-05-07T01:28:52.206Z,0
2017-05-07T01:30:03.221Z,0
2017-05-07T01:31:14.226Z,0
2017-05-07T01:32:25.233Z,0
2017-05-07T01:33:36.244Z,0
2017-05-07T01:34:47.441Z,0
2017-05-07T01:35:58.454Z,0
2017-05-07T01:37:09.464Z,0
2017-05-07T01:38:20.472Z,0
2017-05-07T01:39:31.515Z,0
2017-05-07T01:40:42.518Z,0
2017-05-07T01:41:53.578Z,0
2017-05-07T01:43:04.603Z,0
2017-05-07T01:44:15.797Z,0
2017-05-07T01:45:26.803Z,0
2017-05-07T01:46:37.797Z,0
2017-05-07T01:47:48.817Z,0
2017-05-07T01:48:59.822Z,0
2017-05-07T01:50:10.825Z,0
2017-05-07T01:51:21.828Z,0
2017-05-07T01:52:32.877Z,0
2017-05-07T01:53:43.889Z,0
2017-05-07T01:54:55.108Z,0
2017-05-07T01:56:06.110Z,0
2017-05-07T01:57:17.111Z,0
2017-05-07T01:58:28.507Z,0
2017-05-07T01:59:39.913Z,0
2017-05-07T02:00:51.122Z,0
2017-05-07T02:02:02.534Z,0
2017-05-07T02:03:13.583Z,0
2017-05-07T02:04:24.584Z,0
2017-05-07T02:05:35.592Z,0
2017-05-07T02:06:46.601Z,0
2017-05-07T02:07:57.615Z,0
2017-05-07T02:09:08.624Z,0
2017-05-07T02:10:19.665Z,0
2017-05-07T02:11:30.669Z,0
2017-05-07T02:12:41.675Z,0
2017-05-07T02:13:52.941Z,0
2017-05-07T02:15:04.153Z,0
2017-05-07T02:16:15.348Z,0
2017-05-07T02:17:26.352Z,0
2017-05-07T02:18:37.366Z,0
2017-05-07T02:19:48.370Z,0
2017-05-07T02:20:59.375Z,0
2017-05-07T02:22:10.793Z,0
2017-05-07T02:23:21.805Z,0
2017-05-07T02:24:33.074Z,0
2017-05-07T02:25:44.109Z,0
2017-05-07T02:26:55.327Z,0
2017-05-07T02:28:06.339Z,0
2017-05-07T02:29:17.344Z,0
2017-05-07T02:30:28.560Z,0
2017-05-07T02:31:39.562Z,0
2017-05-07T02:32:50.576Z,0
2017-05-07T02:34:01.597Z,0
2017-05-07T02:35:12.612Z,0
2017-05-07T02:36:23.616Z,0
2017-05-07T02:37:34.632Z,0
2017-05-07T02:38:45.667Z,0
2017-05-07T02:39:56.695Z,0
2017-05-07T02:41:07.691Z,0
2017-05-07T02:42:18.703Z,0
2017-05-07T02:43:29.703Z,0
2017-05-07T02:44:40.903Z,0
2017-05-07T02:45:51.970Z,0
2017-05-07T02:47:02.970Z,0
2017-05-07T02:48:13.965Z,0
2017-05-07T02:49:24.983Z,0
2017-05-07T02:50:35.981Z,0
2017-05-07T02:51:46.979Z,0
2017-05-07T02:52:57.991Z,0
2017-05-07T02:54:09.003Z,0
2017-05-07T02:55:20.013Z,0
2017-05-07T02:56:31.070Z,0
2017-05-07T02:57:42.300Z,0
2017-05-07T02:58:53.303Z,0
2017-05-07T03:00:04.515Z,0
2017-05-07T03:01:15.722Z,0
2017-05-07T03:02:26.727Z,0
2017-05-07T03:03:37.770Z,0
2017-05-07T03:04:48.779Z,0
2017-05-07T03:05:59.784Z,0
2017-05-07T03:07:10.851Z,0
2017-05-07T03:08:22.059Z,0
2017-05-07T03:09:33.076Z,0
2017-05-07T03:10:44.281Z,0
2017-05-07T03:11:55.284Z,0
2017-05-07T03:13:06.280Z,0
2017-05-07T03:14:17.294Z,0
2017-05-07T03:15:28.296Z,0
2017-05-07T03:16:39.496Z,0
2017-05-07T03:17:50.556Z,0
2017-05-07T03:19:01.556Z,0
2017-05-07T03:20:12.558Z,0
2017-05-07T03:21:23.567Z,0
2017-05-07T03:22:34.576Z,0
2017-05-07T03:23:45.587Z,0
2017-05-07T03:24:56.599Z,0
2017-05-07T03:26:07.606Z,0
2017-05-07T03:27:18.609Z,0
2017-05-07T03:28:29.883Z,0
2017-05-07T03:29:40.876Z,0
2017-05-07T03:30:51.881Z,0
2017-05-07T03:32:02.888Z,0
2017-05-07T03:33:13.897Z,0
2017-05-07T03:34:24.950Z,0
2017-05-07T03:35:35.964Z,0
2017-05-07T03:36:47.176Z,0
2017-05-07T03:37:58.190Z,0
2017-05-07T03:39:09.405Z,0
2017-05-07T03:40:20.621Z,0
2017-05-07T03:41:31.638Z,0
2017-05-07T03:42:42.643Z,5
2017-05-07T03:43:53.651Z,5
2017-05-07T03:45:04.716Z,5
2017-05-07T03:46:15.717Z,5
2017-05-07T03:47:26.721Z,10
2017-05-07T03:48:37.731Z,10
2017-05-07T03:49:48.731Z,10
2017-05-07T03:50:59.943Z,10
2017-05-07T03:52:10.948Z,10
2017-05-07T03:53:21.953Z,15
2017-05-07T03:54:33.170Z,15
2017-05-07T03:55:44.251Z,15
2017-05-07T03:56:55.260Z,20
2017-05-07T03:58:06.265Z,20
2017-05-07T03:59:17.284Z,20
2017-05-07T04:00:28.283Z,25
2017-05-07T04:01:39.294Z,25
2017-05-07T04:02:50.310Z,30
2017-05-07T04:04:01.303Z,30
2017-05-07T04:05:12.306Z,30
2017-05-07T04:06:23.360Z,30
2017-05-07T04:07:34.359Z,30
2017-05-07T04:08:45.570Z,35
2017-05-07T04:09:56.582Z,35
2017-05-07T04:11:07.791Z,40
2017-05-07T04:12:18.793Z,40
2017-05-07T04:13:29.994Z,40
2017-05-07T04:14:41.000Z,40
2017-05-07T04:15:51.993Z,45
2017-05-07T04:17:03.051Z,45
2017-05-07T04:18:14.045Z,50
2017-05-07T04:19:25.073Z,55
2017-05-07T04:20:36.291Z,60
2017-05-07T04:21:47.298Z,65
2017-05-07T04:22:58.503Z,70
2017-05-07T04:24:09.509Z,70
2017-05-07T04:25:20.542Z,75
2017-05-07T04:26:31.540Z,80
2017-05-07T04:27:42.585Z,80
2017-05-07T04:28:53.589Z,85
2017-05-07T04:30:04.599Z,90
2017-05-07T04:31:15.608Z,95
2017-05-07T04:32:26.611Z,95
2017-05-07T04:33:37.621Z,100
2017-05-07T04:34:48.624Z,105
2017-05-07T04:35:59.630Z,110
2017-05-07T04:37:10.638Z,115
2017-05-07T04:38:22.089Z,115
2017-05-07T04:39:33.087Z,115
2017-05-07T04:40:44.092Z,120
2017-05-07T04:41:55.107Z,125
2017-05-07T04:43:06.315Z,130
2017-05-07T04:44:17.518Z,135
2017-05-07T04:45:28.515Z,145
2017-05-07T04:46:39.725Z,145
2017-05-07T04:47:50.735Z,150
2017-05-07T04:49:01.745Z,160
2017-05-07T04:50:12.755Z,155
2017-05-07T04:51:23.773Z,165
2017-05-07T04:52:34.792Z,165
2017-05-07T04:53:45.815Z,165
2017-05-07T04:54:56.887Z,175
2017-05-07T04:56:07.880Z,185
2017-05-07T04:57:18.885Z,180
2017-05-07T04:58:29.894Z,185
2017-05-07T04:59:40.901Z,190
2017-05-07T05:00:51.897Z,200
2017-05-07T05:02:02.898Z,205
2017-05-07T05:03:13.911Z,210
2017-05-07T05:04:24.914Z,215
2017-05-07T05:05:36.134Z,195
2017-05-07T05:06:47.142Z,195
2017-05-07T05:07:58.153Z,220
2017-05-07T05:09:09.167Z,235
2017-05-07T05:10:20.223Z,260
2017-05-07T05:11:31.229Z,275
2017-05-07T05:12:42.244Z,265
2017-05-07T05:13:53.253Z,245
2017-05-07T05:15:04.258Z,245
2017-05-07T05:16:15.259Z,255
2017-05-07T05:17:26.472Z,270
2017-05-07T05:18:37.473Z,255
2017-05-07T05:19:48.490Z,240
2017-05-07T05:20:59.765Z,230
2017-05-07T05:22:10.779Z,250
2017-05-07T05:23:21.790Z,270
2017-05-07T05:24:32.799Z,280
2017-05-07T05:25:43.793Z,255
2017-05-07T05:26:54.806Z,255
2017-05-07T05:28:05.814Z,265
2017-05-07T05:29:16.817Z,280
2017-05-07T05:30:27.827Z,305
2017-05-07T05:31:39.083Z,295
2017-05-07T05:32:50.088Z,265
2017-05-07T05:34:01.105Z,260
2017-05-07T05:35:12.118Z,265
2017-05-07T05:36:23.115Z,250
2017-05-07T05:37:34.321Z,215
2017-05-07T05:38:45.333Z,225
2017-05-07T05:39:56.347Z,220
2017-05-07T05:41:07.569Z,205
2017-05-07T05:42:18.622Z,190
2017-05-07T05:43:29.631Z,200
2017-05-07T05:44:40.657Z,200
2017-05-07T05:45:51.670Z,195
2017-05-07T05:47:02.671Z,210
2017-05-07T05:48:13.676Z,195
2017-05-07T05:49:24.877Z,190
2017-05-07T05:50:35.875Z,190
2017-05-07T05:51:46.873Z,185
2017-05-07T05:52:57.879Z,205
2017-05-07T05:54:08.890Z,200
2017-05-07T05:55:19.893Z,215
2017-05-07T05:56:31.096Z,225
2017-05-07T05:57:42.106Z,220
2017-05-07T05:58:53.167Z,240
2017-05-07T06:00:04.165Z,240
2017-05-07T06:01:15.172Z,240
2017-05-07T06:02:26.181Z,255
2017-05-07T06:03:37.189Z,245
2017-05-07T06:04:48.203Z,265
2017-05-07T06:05:59.219Z,235
2017-05-07T06:07:10.454Z,240
2017-05-07T06:08:21.510Z,255
2017-05-07T06:09:32.574Z,245
2017-05-07T06:10:43.591Z,260
2017-05-07T06:11:54.599Z,260
2017-05-07T06:13:05.823Z,265
2017-05-07T06:14:16.840Z,260
2017-05-07T06:15:27.844Z,265
2017-05-07T06:16:38.847Z,260
2017-05-07T06:17:49.848Z,260
2017-05-07T06:19:00.841Z,275
2017-05-07T06:20:11.884Z,330
2017-05-07T06:21:22.927Z,325
2017-05-07T06:22:33.940Z,350
2017-05-07T06:23:45.157Z,295
2017-05-07T06:24:56.174Z,275
2017-05-07T06:26:07.210Z,240
2017-05-07T06:27:18.223Z,215
2017-05-07T06:28:29.237Z,195
2017-05-07T06:29:40.258Z,175
2017-05-07T06:30:51.318Z,170
2017-05-07T06:32:02.336Z,170
2017-05-07T06:33:13.352Z,170
2017-05-07T06:34:24.360Z,170
2017-05-07T06:35:35.370Z,180
2017-05-07T06:36:46.409Z,195
2017-05-07T06:37:57.420Z,190
2017-05-07T06:39:08.652Z,170
2017-05-07T06:40:19.666Z,175
2017-05-07T06:41:30.724Z,150
2017-05-07T06:42:41.729Z,160
2017-05-07T06:43:52.743Z,145
2017-05-07T06:45:03.761Z,160
2017-05-07T06:46:14.765Z,155
2017-05-07T06:47:25.769Z,160
2017-05-07T06:48:36.781Z,175
2017-05-07T06:49:47.787Z,185
2017-05-07T06:50:58.800Z,200
2017-05-07T06:52:09.819Z,235
2017-05-07T06:53:20.825Z,270
2017-05-07T06:54:31.825Z,270
2017-05-07T06:55:43.030Z,255
2017-05-07T06:56:54.036Z,240
2017-05-07T06:58:05.038Z,255
2017-05-07T06:59:16.050Z,260
2017-05-07T07:00:27.051Z,250
2017-05-07T07:01:38.058Z,230
2017-05-07T07:02:49.105Z,220
2017-05-07T07:04:00.112Z,210
2017-05-07T07:05:11.125Z,215
2017-05-07T07:06:22.137Z,230
2017-05-07T07:07:33.150Z,245
2017-05-07T07:08:44.157Z,240
2017-05-07T07:09:55.175Z,245
2017-05-07T07:11:06.169Z,295
2017-05-07T07:12:17.172Z,330
2017-05-07T07:13:28.241Z,365
2017-05-07T07:14:39.275Z,350
2017-05-07T07:15:50.477Z,340
2017-05-07T07:17:01.888Z,310
2017-05-07T07:18:12.892Z,325
2017-05-07T07:19:23.887Z,310
2017-05-07T07:20:34.908Z,310
2017-05-07T07:21:45.914Z,290
2017-05-07T07:22:56.929Z,295
2017-05-07T07:24:07.992Z,280
2017-05-07T07:25:19.004Z,290
2017-05-07T07:26:30.016Z,280
2017-05-07T07:27:41.026Z,270
2017-05-07T07:28:52.045Z,275
2017-05-07T07:30:03.066Z,275
2017-05-07T07:31:14.073Z,285
2017-05-07T07:32:25.095Z,300
2017-05-07T07:33:36.100Z,305
2017-05-07T07:34:47.160Z,335
2017-05-07T07:35:58.169Z,350
2017-05-07T07:37:09.181Z,370
2017-05-07T07:38:20.192Z,370
2017-05-07T07:39:31.196Z,380
2017-05-07T07:40:42.401Z,375
2017-05-07T07:41:53.413Z,355
2017-05-07T07:43:04.415Z,295
2017-05-07T07:44:15.424Z,275
2017-05-07T07:45:26.434Z,270
2017-05-07T07:46:37.439Z,260
2017-05-07T07:47:48.457Z,255
2017-05-07T07:48:59.662Z,255
2017-05-07T07:50:10.664Z,260
2017-05-07T07:51:21.868Z,255
2017-05-07T07:52:33.077Z,255
2017-05-07T07:53:44.293Z,275
2017-05-07T07:54:55.488Z,300
2017-05-07T07:56:06.496Z,310
2017-05-07T07:57:17.899Z,320
2017-05-07T07:58:28.912Z,305
2017-05-07T07:59:40.122Z,310
2017-05-07T08:00:51.188Z,320
2017-05-07T08:02:02.400Z,335
2017-05-07T08:03:13.421Z,340
2017-05-07T08:04:24.424Z,355
2017-05-07T08:05:35.427Z,360
2017-05-07T08:06:46.829Z,350
2017-05-07T08:07:57.854Z,350
2017-05-07T08:09:08.869Z,380
2017-05-07T08:10:19.876Z,400
2017-05-07T08:11:30.979Z,430
2017-05-07T08:12:42.027Z,445
2017-05-07T08:13:53.031Z,440
2017-05-07T08:15:04.038Z,405
2017-05-07T08:16:15.044Z,390
2017-05-07T08:17:26.050Z,380
2017-05-07T08:18:37.099Z,365
2017-05-07T08:19:48.109Z,325
2017-05-07T08:20:59.132Z,320
2017-05-07T08:22:10.391Z,320
2017-05-07T08:23:21.413Z,320
2017-05-07T08:24:32.432Z,305
2017-05-07T08:25:43.446Z,290
2017-05-07T08:26:54.659Z,280
2017-05-07T08:28:05.669Z,280
2017-05-07T08:29:16.681Z,285
2017-05-07T08:30:27.683Z,275
2017-05-07T08:31:38.690Z,265
2017-05-07T08:32:49.957Z,270
2017-05-07T08:34:01.162Z,280
2017-05-07T08:35:12.178Z,275
2017-05-07T08:36:23.198Z,270
2017-05-07T08:37:34.215Z,265
2017-05-07T08:38:45.219Z,260
2017-05-07T08:39:56.231Z,260
2017-05-07T08:41:07.238Z,255
2017-05-07T08:42:18.263Z,240
2017-05-07T08:43:29.315Z,240
2017-05-07T08:44:40.541Z,255
2017-05-07T08:45:51.554Z,270
2017-05-07T08:47:02.554Z,285
2017-05-07T08:48:13.584Z,290
2017-05-07T08:49:24.846Z,285
2017-05-07T08:50:35.856Z,275
2017-05-07T08:51:46.860Z,265
2017-05-07T08:52:57.870Z,270
2017-05-07T08:54:08.885Z,285
2017-05-07T08:55:19.897Z,315
2017-05-07T08:56:30.899Z,320
2017-05-07T08:57:41.921Z,315
2017-05-07T08:58:52.936Z,315
2017-05-07T09:00:03.938Z,335
2017-05-07T09:01:14.951Z,360
2017-05-07T09:02:26.351Z,390
2017-05-07T09:03:37.352Z,385
2017-05-07T09:04:48.353Z,385
2017-05-07T09:05:59.419Z,425
2017-05-07T09:07:10.631Z,410
2017-05-07T09:08:21.626Z,415
2017-05-07T09:09:32.849Z,405
2017-05-07T09:10:44.077Z,415
2017-05-07T09:11:55.287Z,415
2017-05-07T09:13:06.493Z,415
2017-05-07T09:14:17.511Z,505
2017-05-07T09:15:28.521Z,595
2017-05-07T09:16:39.575Z,590
2017-05-07T09:17:50.594Z,480
2017-05-07T09:19:01.814Z,470
2017-05-07T09:20:12.818Z,465
2017-05-07T09:21:23.820Z,465
2017-05-07T09:22:34.831Z,465
2017-05-07T09:23:45.842Z,450
2017-05-07T09:24:57.067Z,455
2017-05-07T09:26:08.078Z,625
2017-05-07T09:27:19.345Z,495
2017-05-07T09:28:30.354Z,475
2017-05-07T09:29:41.353Z,500
2017-05-07T09:30:52.366Z,535
2017-05-07T09:32:03.373Z,595
2017-05-07T09:33:14.379Z,955
2017-05-07T09:34:25.587Z,865
2017-05-07T09:35:36.594Z,1260
2017-05-07T09:36:47.626Z,735
2017-05-07T09:37:58.683Z,1155
2017-05-07T09:39:09.704Z,1120
2017-05-07T09:40:20.710Z,1010
2017-05-07T09:41:31.718Z,860
2017-05-07T09:42:42.940Z,810
2017-05-07T09:43:53.951Z,980
2017-05-07T09:45:04.971Z,1325
2017-05-07T09:46:15.986Z,1645
2017-05-07T09:47:27.001Z,890
2017-05-07T09:48:38.068Z,930
2017-05-07T09:49:49.079Z,1265
2017-05-07T09:51:00.298Z,1035
2017-05-07T09:52:11.308Z,765
2017-05-07T09:53:22.319Z,740
2017-05-07T09:54:33.389Z,810
2017-05-07T09:55:44.610Z,790
2017-05-07T09:56:55.843Z,770
2017-05-07T09:58:07.058Z,705
2017-05-07T09:59:18.278Z,695
2017-05-07T10:00:29.291Z,700
2017-05-07T10:01:40.321Z,670
2017-05-07T10:02:51.326Z,620
2017-05-07T10:04:02.336Z,640
2017-05-07T10:05:13.399Z,655
2017-05-07T10:06:24.415Z,685
2017-05-07T10:07:35.628Z,800
2017-05-07T10:08:46.651Z,1085
2017-05-07T10:09:57.874Z,1200
2017-05-07T10:11:08.877Z,1745
2017-05-07T10:12:19.891Z,1715
2017-05-07T10:13:30.921Z,1370
2017-05-07T10:14:41.935Z,960
2017-05-07T10:15:53.021Z,875
2017-05-07T10:17:04.048Z,880
2017-05-07T10:18:15.269Z,925
2017-05-07T10:19:26.301Z,820
2017-05-07T10:20:37.317Z,690
2017-05-07T10:21:48.352Z,625
2017-05-07T10:22:59.367Z,565
2017-05-07T10:24:10.405Z,515
2017-05-07T10:25:21.638Z,510
2017-05-07T10:26:32.695Z,510
2017-05-07T10:27:43.911Z,525
2017-05-07T10:28:54.944Z,565
2017-05-07T10:30:06.404Z,650
2017-05-07T10:31:17.828Z,740
2017-05-07T10:32:28.844Z,785
2017-05-07T10:33:39.864Z,1280
2017-05-07T10:34:50.883Z,1235
2017-05-07T10:36:01.911Z,1535
2017-05-07T10:37:12.979Z,1210
2017-05-07T10:38:24.204Z,755
2017-05-07T10:39:35.223Z,655
2017-05-07T10:40:46.260Z,595
2017-05-07T10:41:57.497Z,515
2017-05-07T10:43:08.509Z,460
2017-05-07T10:44:19.742Z,425
2017-05-07T10:45:30.774Z,415
2017-05-07T10:46:41.994Z,410
2017-05-07T10:47:53.269Z,425
2017-05-07T10:49:04.284Z,435
2017-05-07T10:50:15.302Z,445
2017-05-07T10:51:26.333Z,440
2017-05-07T10:52:37.563Z,450
2017-05-07T10:53:48.579Z,460
2017-05-07T10:54:59.602Z,470
2017-05-07T10:56:10.639Z,475
2017-05-07T10:57:21.665Z,480
2017-05-07T10:58:32.880Z,480
2017-05-07T10:59:44.104Z,475
2017-05-07T11:00:55.124Z,465
2017-05-07T11:02:06.138Z,450
2017-05-07T11:03:17.150Z,455
2017-05-07T11:04:28.427Z,470
2017-05-07T11:05:39.848Z,530
2017-05-07T11:06:50.867Z,640
2017-05-07T11:08:01.873Z,1060
2017-05-07T11:09:12.901Z,1235
2017-05-07T11:10:24.121Z,1395
2017-05-07T11:11:35.344Z,1130
2017-05-07T11:12:46.356Z,1265
2017-05-07T11:13:57.365Z,1140
2017-05-07T11:15:08.440Z,1275
2017-05-07T11:16:19.655Z,1230
2017-05-07T11:17:30.669Z,795
2017-05-07T11:18:41.689Z,760
2017-05-07T11:19:52.904Z,1070
2017-05-07T11:21:03.926Z,575
2017-05-07T11:22:14.936Z,530
2017-05-07T11:23:25.956Z,535
2017-05-07T11:24:37.008Z,570
2017-05-07T11:25:48.029Z,635
2017-05-07T11:26:59.058Z,755
2017-05-07T11:28:10.070Z,1185
2017-05-07T11:29:21.082Z,1135
2017-05-07T11:30:32.157Z,1115
2017-05-07T11:31:43.370Z,955
2017-05-07T11:32:54.383Z,665
2017-05-07T11:34:05.630Z,525
2017-05-07T11:35:16.641Z,430
2017-05-07T11:36:27.654Z,355
2017-05-07T11:37:38.908Z,310
2017-05-07T11:38:49.919Z,280
2017-05-07T11:40:00.943Z,260
2017-05-07T11:41:12.011Z,250
2017-05-07T11:42:23.028Z,250
2017-05-07T11:43:34.272Z,250
2017-05-07T11:44:45.293Z,250
2017-05-07T11:45:56.326Z,255
2017-05-07T11:47:07.354Z,260
2017-05-07T11:48:18.364Z,260
2017-05-07T11:49:29.390Z,255
2017-05-07T11:50:40.620Z,265
2017-05-07T11:51:51.712Z,275
2017-05-07T11:53:02.744Z,280
2017-05-07T11:54:13.968Z,275
2017-05-07T11:55:24.984Z,270
2017-05-07T11:56:35.999Z,260
2017-05-07T11:57:47.071Z,250
2017-05-07T11:58:58.097Z,255
2017-05-07T12:00:09.310Z,265
2017-05-07T12:01:20.736Z,265
2017-05-07T12:02:31.946Z,275
2017-05-07T12:03:42.959Z,280
2017-05-07T12:04:53.981Z,285
2017-05-07T12:06:05.213Z,295
2017-05-07T12:07:16.223Z,300
2017-05-07T12:08:27.283Z,305
2017-05-07T12:09:38.291Z,310
2017-05-07T12:10:49.306Z,315
2017-05-07T12:12:00.519Z,305
2017-05-07T12:13:11.538Z,300
2017-05-07T12:14:22.554Z,290
2017-05-07T12:15:33.574Z,295
2017-05-07T12:16:44.577Z,300
2017-05-07T12:17:55.588Z,315
2017-05-07T12:19:06.858Z,335
2017-05-07T12:20:17.876Z,360
2017-05-07T12:21:28.880Z,380
2017-05-07T12:22:39.888Z,395
2017-05-07T12:23:51.306Z,405
2017-05-07T12:25:02.316Z,415
2017-05-07T12:26:13.346Z,430
2017-05-07T12:27:24.366Z,440
2017-05-07T12:28:35.385Z,480
2017-05-07T12:29:46.455Z,470
2017-05-07T12:30:57.467Z,465
2017-05-07T12:32:08.473Z,460
2017-05-07T12:33:19.487Z,465
2017-05-07T12:34:30.501Z,475
2017-05-07T12:35:41.723Z,495
2017-05-07T12:36:52.941Z,510
2017-05-07T12:38:03.946Z,525
2017-05-07T12:39:14.958Z,525
2017-05-07T12:40:26.171Z,530
2017-05-07T12:41:37.392Z,540
2017-05-07T12:42:48.401Z,560
2017-05-07T12:43:59.627Z,570
2017-05-07T12:45:10.741Z,575
2017-05-07T12:46:21.761Z,575
2017-05-07T12:47:32.978Z,570
2017-05-07T12:48:44.011Z,560
2017-05-07T12:49:55.031Z,555
2017-05-07T12:51:06.046Z,545
2017-05-07T12:52:17.077Z,550
2017-05-07T12:53:28.284Z,555
2017-05-07T12:54:39.302Z,555
2017-05-07T12:55:50.563Z,545
2017-05-07T12:57:01.581Z,535
2017-05-07T12:58:12.600Z,520
2017-05-07T12:59:23.620Z,545
2017-05-07T13:00:34.640Z,515
2017-05-07T13:01:45.863Z,510
2017-05-07T13:02:56.876Z,495
2017-05-07T13:04:07.897Z,480
2017-05-07T13:05:18.913Z,475
2017-05-07T13:06:29.921Z,480
2017-05-07T13:07:41.143Z,485
2017-05-07T13:08:52.151Z,485
2017-05-07T13:10:03.358Z,490
2017-05-07T13:11:14.369Z,480
2017-05-07T13:12:25.438Z,470
2017-05-07T13:13:36.452Z,465
2017-05-07T13:14:47.457Z,470
2017-05-07T13:15:58.508Z,475
2017-05-07T13:17:09.526Z,485
2017-05-07T13:18:20.737Z,500
2017-05-07T13:19:31.953Z,495
2017-05-07T13:20:43.176Z,485
2017-05-07T13:21:54.189Z,490
2017-05-07T13:23:05.275Z,475
2017-05-07T13:24:16.283Z,490
2017-05-07T13:25:27.298Z,550
2017-05-07T13:26:38.321Z,520
2017-05-07T13:27:49.331Z,525
2017-05-07T13:29:00.347Z,530
2017-05-07T13:30:11.362Z,530
2017-05-07T13:31:22.382Z,520
2017-05-07T13:32:33.408Z,510
2017-05-07T13:33:44.484Z,495
2017-05-07T13:34:55.529Z,485
2017-05-07T13:36:06.580Z,475
2017-05-07T13:37:17.581Z,450
2017-05-07T13:38:28.597Z,445
2017-05-07T13:39:39.625Z,435
2017-05-07T13:40:50.643Z,420
2017-05-07T13:42:01.856Z,405
2017-05-07T13:43:12.876Z,400
2017-05-07T13:44:23.939Z,400
2017-05-07T13:45:34.957Z,405
2017-05-07T13:46:45.971Z,410
2017-05-07T13:47:57.013Z,410
2017-05-07T13:49:08.230Z,400
2017-05-07T13:50:19.241Z,385
2017-05-07T13:51:30.263Z,380
2017-05-07T13:52:41.486Z,380
2017-05-07T13:53:52.722Z,375
2017-05-07T13:55:04.027Z,380
2017-05-07T13:56:15.248Z,390
2017-05-07T13:57:26.256Z,395
2017-05-07T13:58:37.471Z,405
2017-05-07T13:59:48.494Z,410
2017-05-07T14:00:59.719Z,420
2017-05-07T14:02:10.735Z,425
2017-05-07T14:03:21.757Z,435
2017-05-07T14:04:32.779Z,425
2017-05-07T14:05:43.802Z,410
2017-05-07T14:06:54.812Z,390
2017-05-07T14:08:05.848Z,375
2017-05-07T14:09:16.864Z,355
2017-05-07T14:10:27.903Z,350
2017-05-07T14:11:38.915Z,365
2017-05-07T14:12:49.933Z,375
2017-05-07T14:14:01.149Z,390
2017-05-07T14:15:12.162Z,410
2017-05-07T14:16:23.223Z,425
2017-05-07T14:17:34.231Z,435
2017-05-07T14:18:45.237Z,445
2017-05-07T14:19:56.248Z,445
2017-05-07T14:21:07.257Z,440
2017-05-07T14:22:18.281Z,425
2017-05-07T14:23:29.309Z,415
2017-05-07T14:24:40.530Z,425
2017-05-07T14:25:51.553Z,410
2017-05-07T14:27:02.613Z,410
2017-05-07T14:28:13.621Z,405
2017-05-07T14:29:24.637Z,410
2017-05-07T14:30:35.651Z,415
2017-05-07T14:31:46.661Z,415
2017-05-07T14:32:58.078Z,415
2017-05-07T14:34:09.494Z,410
2017-05-07T14:35:20.714Z,410
2017-05-07T14:36:31.933Z,415
2017-05-07T14:37:42.991Z,420
2017-05-07T14:38:54.004Z,415
2017-05-07T14:40:05.024Z,415
2017-05-07T14:41:16.059Z,420
2017-05-07T14:42:27.069Z,415
2017-05-07T14:43:38.080Z,420
2017-05-07T14:44:49.094Z,425
2017-05-07T14:46:00.313Z,425
2017-05-07T14:47:11.339Z,435
2017-05-07T14:48:22.407Z,425
2017-05-07T14:49:37.384Z,435
2017-05-07T14:50:48.828Z,450
2017-05-07T14:51:59.996Z,445
2017-05-07T14:53:12.291Z,445
2017-05-07T14:54:23.504Z,445
2017-05-07T14:55:34.509Z,445
2017-05-07T14:56:45.529Z,445
2017-05-07T14:57:56.541Z,440
2017-05-07T14:59:07.809Z,440
2017-05-07T15:00:18.829Z,435
2017-05-07T15:01:29.832Z,425
2017-05-07T15:02:41.251Z,415
2017-05-07T15:03:52.478Z,410
2017-05-07T15:05:03.498Z,405
2017-05-07T15:06:14.704Z,395
2017-05-07T15:07:25.737Z,380
2017-05-07T15:08:36.748Z,370
2017-05-07T15:09:47.829Z,365
2017-05-07T15:10:58.844Z,365
2017-05-07T15:12:09.850Z,370
2017-05-07T15:13:20.884Z,365
2017-05-07T15:14:31.900Z,370
2017-05-07T15:15:43.158Z,375
2017-05-07T15:16:54.180Z,355
2017-05-07T15:18:05.198Z,340
2017-05-07T15:19:16.200Z,335
2017-05-07T15:20:27.458Z,320
2017-05-07T15:21:38.483Z,315
2017-05-07T15:22:49.493Z,315
2017-05-07T15:24:00.703Z,300
2017-05-07T15:25:11.711Z,285
2017-05-07T15:26:22.732Z,275
2017-05-07T15:27:33.734Z,260
2017-05-07T15:28:44.750Z,235
2017-05-07T15:29:55.771Z,215
2017-05-07T15:31:06.839Z,190
2017-05-07T15:32:18.046Z,170
2017-05-07T15:33:29.268Z,155
2017-05-07T15:34:40.283Z,140
2017-05-07T15:35:51.318Z,140
2017-05-07T15:37:02.321Z,140
2017-05-07T15:38:13.333Z,140
2017-05-07T15:39:24.559Z,140
2017-05-07T15:40:35.570Z,140
2017-05-07T15:41:46.626Z,145
2017-05-07T15:42:57.834Z,150
2017-05-07T15:44:08.831Z,150
2017-05-07T15:45:19.844Z,155
2017-05-07T15:46:30.863Z,160
2017-05-07T15:47:41.885Z,165
2017-05-07T15:48:52.896Z,175
2017-05-07T15:50:04.310Z,185
2017-05-07T15:51:15.311Z,195
2017-05-07T15:52:26.377Z,205
2017-05-07T15:53:37.397Z,215
2017-05-07T15:54:48.425Z,230
2017-05-07T15:55:59.640Z,240
2017-05-07T15:57:10.681Z,245
2017-05-07T15:58:21.727Z,255
2017-05-07T15:59:32.735Z,270
2017-05-07T16:00:43.750Z,270
2017-05-07T16:01:54.749Z,275
2017-05-07T16:03:05.988Z,275
2017-05-07T16:04:17.229Z,270
2017-05-07T16:05:28.459Z,270
2017-05-07T16:06:39.471Z,260
2017-05-07T16:07:50.465Z,255
2017-05-07T16:09:01.530Z,250
2017-05-07T16:10:12.563Z,240
2017-05-07T16:11:23.611Z,235
2017-05-07T16:12:35.046Z,245
2017-05-07T16:13:46.054Z,225
2017-05-07T16:14:57.069Z,235
2017-05-07T16:16:08.079Z,220
2017-05-07T16:17:19.091Z,220
2017-05-07T16:18:30.099Z,215
2017-05-07T16:19:41.164Z,215
2017-05-07T16:20:52.182Z,215
2017-05-07T16:22:03.397Z,215
2017-05-07T16:23:14.414Z,210
2017-05-07T16:24:25.450Z,210
2017-05-07T16:25:36.468Z,210
2017-05-07T16:26:47.471Z,205
2017-05-07T16:27:58.485Z,200
2017-05-07T16:29:09.900Z,200
2017-05-07T16:30:20.934Z,195
2017-05-07T16:31:32.152Z,190
2017-05-07T16:32:43.175Z,190
2017-05-07T16:33:54.386Z,185